sensor_id;sensor_type;location;lat;lon;timestamp;temperature;humidity
63976;DHT22;50167;47.958;21.780;2023-06-10T00:01:42;23.94;62.31
63976;DHT22;50167;47.958;21.780;2023-06-10T00:04:09;24.11;61.69
63976;DHT22;50167;47.958;21.780;2023-06-10T00:06:35;24.17;61.28
63976;DHT22;50167;47.958;21.780;2023-06-10T00:09:04;24.23;60.92
63976;DHT22;50167;47.958;21.780;2023-06-10T00:11:32;24.26;60.90
63976;DHT22;50167;47.958;21.780;2023-06-10T00:14:00;24.27;60.68
63976;DHT22;50167;47.958;21.780;2023-06-10T00:16:27;24.33;60.44
63976;DHT22;50167;47.958;21.780;2023-06-10T00:18:53;24.40;60.11
63976;DHT22;50167;47.958;21.780;2023-06-10T00:21:22;24.49;59.89
63976;DHT22;50167;47.958;21.780;2023-06-10T00:23:50;24.54;59.47
63976;DHT22;50167;47.958;21.780;2023-06-10T00:26:28;24.08;59.26
63976;DHT22;50167;47.958;21.780;2023-06-10T00:28:54;22.92;61.53
63976;DHT22;50167;47.958;21.780;2023-06-10T00:31:20;22.06;64.13
63976;DHT22;50167;47.958;21.780;2023-06-10T00:33:46;22.21;66.23
63976;DHT22;50167;47.958;21.780;2023-06-10T00:36:13;22.82;64.69
63976;DHT22;50167;47.958;21.780;2023-06-10T00:38:39;23.20;63.54
63976;DHT22;50167;47.958;21.780;2023-06-10T00:41:07;23.39;62.84
63976;DHT22;50167;47.958;21.780;2023-06-10T00:43:33;23.56;62.25
63976;DHT22;50167;47.958;21.780;2023-06-10T00:46:00;23.68;61.72
63976;DHT22;50167;47.958;21.780;2023-06-10T00:48:27;23.73;61.37
63976;DHT22;50167;47.958;21.780;2023-06-10T00:50:54;23.80;61.25
63976;DHT22;50167;47.958;21.780;2023-06-10T00:53:22;23.84;60.87
63976;DHT22;50167;47.958;21.780;2023-06-10T00:55:49;23.81;60.76
63976;DHT22;50167;47.958;21.780;2023-06-10T00:58:15;23.75;60.76
63976;DHT22;50167;47.958;21.780;2023-06-10T01:00:41;23.83;60.56
63976;DHT22;50167;47.958;21.780;2023-06-10T01:03:07;23.88;60.37
63976;DHT22;50167;47.958;21.780;2023-06-10T01:05:35;23.88;59.98
63976;DHT22;50167;47.958;21.780;2023-06-10T01:08:41;23.74;60.09
63976;DHT22;50167;47.958;21.780;2023-06-10T01:11:14;23.61;60.46
63976;DHT22;50167;47.958;21.780;2023-06-10T01:13:41;23.65;60.47
63976;DHT22;50167;47.958;21.780;2023-06-10T01:16:09;23.67;60.38
63976;DHT22;50167;47.958;21.780;2023-06-10T01:18:36;23.75;60.24
63976;DHT22;50167;47.958;21.780;2023-06-10T01:21:02;23.78;60.17
63976;DHT22;50167;47.958;21.780;2023-06-10T01:23:29;23.85;59.96
63976;DHT22;50167;47.958;21.780;2023-06-10T01:26:06;23.83;59.75
63976;DHT22;50167;47.958;21.780;2023-06-10T01:28:49;23.89;59.59
63976;DHT22;50167;47.958;21.780;2023-06-10T01:34:00;22.27;62.00
63976;DHT22;50167;47.958;21.780;2023-06-10T01:36:31;21.44;64.25
63976;DHT22;50167;47.958;21.780;2023-06-10T01:39:00;21.48;66.30
63976;DHT22;50167;47.958;21.780;2023-06-10T01:41:27;22.07;65.46
63976;DHT22;50167;47.958;21.780;2023-06-10T01:43:55;22.55;64.25
63976;DHT22;50167;47.958;21.780;2023-06-10T01:46:21;22.81;63.41
63976;DHT22;50167;47.958;21.780;2023-06-10T01:48:48;22.92;62.90
63976;DHT22;50167;47.958;21.780;2023-06-10T01:51:14;23.00;62.82
63976;DHT22;50167;47.958;21.780;2023-06-10T01:53:41;23.15;62.54
63976;DHT22;50167;47.958;21.780;2023-06-10T01:56:07;23.23;62.30
63976;DHT22;50167;47.958;21.780;2023-06-10T01:58:33;23.27;62.09
63976;DHT22;50167;47.958;21.780;2023-06-10T02:01:00;23.33;62.07
63976;DHT22;50167;47.958;21.780;2023-06-10T02:03:26;23.25;61.76
63976;DHT22;50167;47.958;21.780;2023-06-10T02:05:52;23.20;62.23
63976;DHT22;50167;47.958;21.780;2023-06-10T02:08:19;23.20;62.18
63976;DHT22;50167;47.958;21.780;2023-06-10T02:10:45;23.29;62.15
63976;DHT22;50167;47.958;21.780;2023-06-10T02:13:11;23.25;62.08
63976;DHT22;50167;47.958;21.780;2023-06-10T02:15:37;23.12;62.27
63976;DHT22;50167;47.958;21.780;2023-06-10T02:18:04;23.00;62.74
63976;DHT22;50167;47.958;21.780;2023-06-10T02:20:30;22.99;62.70
63976;DHT22;50167;47.958;21.780;2023-06-10T02:22:57;22.95;62.91
63976;DHT22;50167;47.958;21.780;2023-06-10T02:25:23;22.91;63.33
63976;DHT22;50167;47.958;21.780;2023-06-10T02:27:49;22.86;63.22
63976;DHT22;50167;47.958;21.780;2023-06-10T02:30:15;22.82;63.27
63976;DHT22;50167;47.958;21.780;2023-06-10T02:32:41;22.93;63.47
63976;DHT22;50167;47.958;21.780;2023-06-10T02:35:08;23.10;63.41
63976;DHT22;50167;47.958;21.780;2023-06-10T02:37:36;23.18;62.95
63976;DHT22;50167;47.958;21.780;2023-06-10T02:40:02;23.26;62.68
63976;DHT22;50167;47.958;21.780;2023-06-10T02:42:29;23.30;62.51
63976;DHT22;50167;47.958;21.780;2023-06-10T02:44:55;23.23;62.62
63976;DHT22;50167;47.958;21.780;2023-06-10T02:47:22;23.19;62.54
63976;DHT22;50167;47.958;21.780;2023-06-10T02:49:48;23.12;62.59
63976;DHT22;50167;47.958;21.780;2023-06-10T02:52:14;23.06;62.85
63976;DHT22;50167;47.958;21.780;2023-06-10T02:54:41;23.05;62.97
63976;DHT22;50167;47.958;21.780;2023-06-10T02:57:07;22.98;63.16
63976;DHT22;50167;47.958;21.780;2023-06-10T02:59:33;22.98;63.38
63976;DHT22;50167;47.958;21.780;2023-06-10T03:02:00;22.99;63.25
63976;DHT22;50167;47.958;21.780;2023-06-10T03:04:27;23.12;62.89
63976;DHT22;50167;47.958;21.780;2023-06-10T03:06:55;23.19;62.59
63976;DHT22;50167;47.958;21.780;2023-06-10T03:09:21;23.23;62.62
63976;DHT22;50167;47.958;21.780;2023-06-10T03:11:47;23.23;62.41
63976;DHT22;50167;47.958;21.780;2023-06-10T03:14:13;23.26;62.59
63976;DHT22;50167;47.958;21.780;2023-06-10T03:16:40;23.30;62.60
63976;DHT22;50167;47.958;21.780;2023-06-10T03:19:07;23.41;62.46
63976;DHT22;50167;47.958;21.780;2023-06-10T03:21:34;23.53;62.33
63976;DHT22;50167;47.958;21.780;2023-06-10T03:24:01;23.58;61.85
63976;DHT22;50167;47.958;21.780;2023-06-10T03:26:27;23.51;61.82
63976;DHT22;50167;47.958;21.780;2023-06-10T03:28:54;23.41;61.99
63976;DHT22;50167;47.958;21.780;2023-06-10T03:31:20;23.43;62.32
63976;DHT22;50167;47.958;21.780;2023-06-10T03:33:46;23.51;62.20
63976;DHT22;50167;47.958;21.780;2023-06-10T03:36:12;23.65;62.15
63976;DHT22;50167;47.958;21.780;2023-06-10T03:38:39;23.75;61.82
63976;DHT22;50167;47.958;21.780;2023-06-10T03:41:05;23.87;61.80
63976;DHT22;50167;47.958;21.780;2023-06-10T03:43:32;24.02;61.42
63976;DHT22;50167;47.958;21.780;2023-06-10T03:45:58;24.09;61.19
63976;DHT22;50167;47.958;21.780;2023-06-10T03:48:25;24.15;61.03
63976;DHT22;50167;47.958;21.780;2023-06-10T03:50:51;24.20;61.03
63976;DHT22;50167;47.958;21.780;2023-06-10T03:53:18;24.29;61.07
63976;DHT22;50167;47.958;21.780;2023-06-10T03:55:44;24.40;60.71
63976;DHT22;50167;47.958;21.780;2023-06-10T03:58:11;24.42;60.55
63976;DHT22;50167;47.958;21.780;2023-06-10T04:00:39;24.46;60.44
63976;DHT22;50167;47.958;21.780;2023-06-10T04:03:09;24.44;60.31
63976;DHT22;50167;47.958;21.780;2023-06-10T04:05:37;24.39;60.20
63976;DHT22;50167;47.958;21.780;2023-06-10T04:08:03;24.27;60.34
63976;DHT22;50167;47.958;21.780;2023-06-10T04:10:31;24.23;61.10
63976;DHT22;50167;47.958;21.780;2023-06-10T04:12:57;24.26;61.16
63976;DHT22;50167;47.958;21.780;2023-06-10T04:15:23;24.35;60.94
63976;DHT22;50167;47.958;21.780;2023-06-10T04:17:49;24.30;60.80
63976;DHT22;50167;47.958;21.780;2023-06-10T04:20:16;24.27;60.97
63976;DHT22;50167;47.958;21.780;2023-06-10T04:22:42;24.20;61.12
63976;DHT22;50167;47.958;21.780;2023-06-10T04:25:09;24.20;61.43
63976;DHT22;50167;47.958;21.780;2023-06-10T04:27:36;24.19;61.74
63976;DHT22;50167;47.958;21.780;2023-06-10T04:30:04;24.26;61.71
63976;DHT22;50167;47.958;21.780;2023-06-10T04:32:31;24.35;61.20
63976;DHT22;50167;47.958;21.780;2023-06-10T04:34:57;24.43;61.38
63976;DHT22;50167;47.958;21.780;2023-06-10T04:37:23;24.49;61.52
63976;DHT22;50167;47.958;21.780;2023-06-10T04:39:50;24.60;61.47
63976;DHT22;50167;47.958;21.780;2023-06-10T04:42:16;24.71;61.14
63976;DHT22;50167;47.958;21.780;2023-06-10T04:44:42;24.82;60.98
63976;DHT22;50167;47.958;21.780;2023-06-10T04:47:08;24.90;60.89
63976;DHT22;50167;47.958;21.780;2023-06-10T04:49:35;25.00;60.84
63976;DHT22;50167;47.958;21.780;2023-06-10T04:52:02;25.07;60.45
63976;DHT22;50167;47.958;21.780;2023-06-10T04:54:30;25.09;59.99
63976;DHT22;50167;47.958;21.780;2023-06-10T04:56:58;25.04;60.07
63976;DHT22;50167;47.958;21.780;2023-06-10T04:59:25;24.98;60.74
63976;DHT22;50167;47.958;21.780;2023-06-10T05:01:51;24.98;60.58
63976;DHT22;50167;47.958;21.780;2023-06-10T05:04:17;25.05;60.64
63976;DHT22;50167;47.958;21.780;2023-06-10T05:06:43;25.08;60.34
63976;DHT22;50167;47.958;21.780;2023-06-10T05:09:10;25.09;60.48
63976;DHT22;50167;47.958;21.780;2023-06-10T05:11:36;25.14;60.65
63976;DHT22;50167;47.958;21.780;2023-06-10T05:14:02;25.23;60.73
63976;DHT22;50167;47.958;21.780;2023-06-10T05:16:28;25.35;60.51
63976;DHT22;50167;47.958;21.780;2023-06-10T05:18:54;25.46;60.02
63976;DHT22;50167;47.958;21.780;2023-06-10T05:21:20;25.49;60.03
63976;DHT22;50167;47.958;21.780;2023-06-10T05:23:47;25.62;60.18
63976;DHT22;50167;47.958;21.780;2023-06-10T05:26:13;25.75;59.83
63976;DHT22;50167;47.958;21.780;2023-06-10T05:28:40;25.76;59.55
63976;DHT22;50167;47.958;21.780;2023-06-10T05:31:06;25.40;59.79
63976;DHT22;50167;47.958;21.780;2023-06-10T05:33:32;24.52;61.61
63976;DHT22;50167;47.958;21.780;2023-06-10T05:35:58;23.74;63.66
63976;DHT22;50167;47.958;21.780;2023-06-10T05:38:25;23.78;65.18
63976;DHT22;50167;47.958;21.780;2023-06-10T05:40:51;24.38;64.74
63976;DHT22;50167;47.958;21.780;2023-06-10T05:43:18;24.92;63.01
63976;DHT22;50167;47.958;21.780;2023-06-10T05:45:44;25.22;62.05
63976;DHT22;50167;47.958;21.780;2023-06-10T05:48:11;25.40;61.40
63976;DHT22;50167;47.958;21.780;2023-06-10T05:50:37;25.38;60.83
63976;DHT22;50167;47.958;21.780;2023-06-10T05:53:05;25.28;61.13
63976;DHT22;50167;47.958;21.780;2023-06-10T05:55:33;25.23;61.28
63976;DHT22;50167;47.958;21.780;2023-06-10T05:58:00;25.33;61.48
63976;DHT22;50167;47.958;21.780;2023-06-10T06:00:26;25.59;60.67
63976;DHT22;50167;47.958;21.780;2023-06-10T06:02:54;25.73;60.35
63976;DHT22;50167;47.958;21.780;2023-06-10T06:05:20;25.86;60.04
63976;DHT22;50167;47.958;21.780;2023-06-10T06:07:46;25.86;59.88
63976;DHT22;50167;47.958;21.780;2023-06-10T06:10:13;25.94;60.04
63976;DHT22;50167;47.958;21.780;2023-06-10T06:12:39;26.15;60.10
63976;DHT22;50167;47.958;21.780;2023-06-10T06:15:07;26.15;59.63
63976;DHT22;50167;47.958;21.780;2023-06-10T06:17:34;26.09;59.70
63976;DHT22;50167;47.958;21.780;2023-06-10T06:20:01;26.08;60.15
63976;DHT22;50167;47.958;21.780;2023-06-10T06:22:27;26.25;60.24
63976;DHT22;50167;47.958;21.780;2023-06-10T06:24:53;26.46;59.56
63976;DHT22;50167;47.958;21.780;2023-06-10T06:27:20;26.27;59.63
63976;DHT22;50167;47.958;21.780;2023-06-10T06:29:47;25.57;61.29
63976;DHT22;50167;47.958;21.780;2023-06-10T06:32:13;25.00;62.20
63976;DHT22;50167;47.958;21.780;2023-06-10T06:34:39;25.33;62.12
63976;DHT22;50167;47.958;21.780;2023-06-10T06:37:05;26.05;59.99
63976;DHT22;50167;47.958;21.780;2023-06-10T06:39:32;26.34;59.11
63976;DHT22;50167;47.958;21.780;2023-06-10T06:41:58;25.90;59.70
63976;DHT22;50167;47.958;21.780;2023-06-10T06:44:24;25.40;62.01
63976;DHT22;50167;47.958;21.780;2023-06-10T06:46:50;24.97;63.80
63976;DHT22;50167;47.958;21.780;2023-06-10T06:49:16;25.48;63.18
63976;DHT22;50167;47.958;21.780;2023-06-10T06:51:42;26.41;60.78
63976;DHT22;50167;47.958;21.780;2023-06-10T06:54:15;27.07;59.29
63976;DHT22;50167;47.958;21.780;2023-06-10T06:56:39;27.00;58.55
63976;DHT22;50167;47.958;21.780;2023-06-10T06:59:05;26.32;59.48
63976;DHT22;50167;47.958;21.780;2023-06-10T07:01:33;25.80;60.62
63976;DHT22;50167;47.958;21.780;2023-06-10T07:04:00;25.40;61.37
63976;DHT22;50167;47.958;21.780;2023-06-10T07:06:26;25.14;62.44
63976;DHT22;50167;47.958;21.780;2023-06-10T07:08:54;25.72;62.83
63976;DHT22;50167;47.958;21.780;2023-06-10T07:11:20;26.72;59.48
63976;DHT22;50167;47.958;21.780;2023-06-10T07:13:47;26.87;58.17
63976;DHT22;50167;47.958;21.780;2023-06-10T07:16:14;26.39;58.70
63976;DHT22;50167;47.958;21.780;2023-06-10T07:18:40;25.97;59.56
63976;DHT22;50167;47.958;21.780;2023-06-10T07:21:06;25.60;61.07
63976;DHT22;50167;47.958;21.780;2023-06-10T07:23:32;25.36;61.30
63976;DHT22;50167;47.958;21.780;2023-06-10T07:26:02;25.23;63.01
63976;DHT22;50167;47.958;21.780;2023-06-10T07:28:32;25.98;61.92
63976;DHT22;50167;47.958;21.780;2023-06-10T07:30:58;27.10;58.04
63976;DHT22;50167;47.958;21.780;2023-06-10T07:33:25;27.21;56.98
63976;DHT22;50167;47.958;21.780;2023-06-10T07:35:51;26.66;58.80
63976;DHT22;50167;47.958;21.780;2023-06-10T07:38:17;26.21;59.68
63976;DHT22;50167;47.958;21.780;2023-06-10T07:40:44;25.90;59.92
63976;DHT22;50167;47.958;21.780;2023-06-10T07:43:10;25.75;60.89
63976;DHT22;50167;47.958;21.780;2023-06-10T07:45:39;25.52;61.08
63976;DHT22;50167;47.958;21.780;2023-06-10T07:48:05;25.42;62.04
63976;DHT22;50167;47.958;21.780;2023-06-10T07:50:31;25.33;63.21
63976;DHT22;50167;47.958;21.780;2023-06-10T07:52:57;26.20;62.01
63976;DHT22;50167;47.958;21.780;2023-06-10T07:55:23;27.21;58.23
63976;DHT22;50167;47.958;21.780;2023-06-10T07:57:53;27.51;56.28
63976;DHT22;50167;47.958;21.780;2023-06-10T08:00:19;27.07;58.07
63976;DHT22;50167;47.958;21.780;2023-06-10T08:02:46;26.62;59.37
63976;DHT22;50167;47.958;21.780;2023-06-10T08:05:16;26.20;59.72
63976;DHT22;50167;47.958;21.780;2023-06-10T08:07:44;25.81;60.34
63976;DHT22;50167;47.958;21.780;2023-06-10T08:10:11;25.59;60.81
63976;DHT22;50167;47.958;21.780;2023-06-10T08:12:37;25.43;61.85
63976;DHT22;50167;47.958;21.780;2023-06-10T08:15:04;25.38;60.98
63976;DHT22;50167;47.958;21.780;2023-06-10T08:17:30;25.40;63.36
63976;DHT22;50167;47.958;21.780;2023-06-10T08:19:57;26.60;61.12
63976;DHT22;50167;47.958;21.780;2023-06-10T08:22:23;27.66;57.69
63976;DHT22;50167;47.958;21.780;2023-06-10T08:24:51;27.86;56.33
63976;DHT22;50167;47.958;21.780;2023-06-10T08:27:17;27.54;56.92
63976;DHT22;50167;47.958;21.780;2023-06-10T08:29:43;27.20;56.88
63976;DHT22;50167;47.958;21.780;2023-06-10T08:32:10;26.85;58.06
63976;DHT22;50167;47.958;21.780;2023-06-10T08:34:36;26.55;58.79
63976;DHT22;50167;47.958;21.780;2023-06-10T08:37:04;26.28;60.12
63976;DHT22;50167;47.958;21.780;2023-06-10T08:39:31;26.21;60.01
63976;DHT22;50167;47.958;21.780;2023-06-10T08:42:11;26.28;61.06
63976;DHT22;50167;47.958;21.780;2023-06-10T08:44:38;26.32;61.51
63976;DHT22;50167;47.958;21.780;2023-06-10T08:47:18;26.31;61.21
63976;DHT22;50167;47.958;21.780;2023-06-10T08:49:47;26.38;61.04
63976;DHT22;50167;47.958;21.780;2023-06-10T08:52:19;26.41;60.35
63976;DHT22;50167;47.958;21.780;2023-06-10T08:55:03;26.48;61.04
63976;DHT22;50167;47.958;21.780;2023-06-10T08:57:30;26.52;60.63
63976;DHT22;50167;47.958;21.780;2023-06-10T08:59:57;26.52;59.60
63976;DHT22;50167;47.958;21.780;2023-06-10T09:02:24;26.45;59.62
63976;DHT22;50167;47.958;21.780;2023-06-10T09:04:51;26.27;59.63
63976;DHT22;50167;47.958;21.780;2023-06-10T09:07:18;26.18;60.34
63976;DHT22;50167;47.958;21.780;2023-06-10T09:09:45;26.08;60.59
63976;DHT22;50167;47.958;21.780;2023-06-10T09:12:13;26.01;61.51
63976;DHT22;50167;47.958;21.780;2023-06-10T09:14:39;25.97;60.91
63976;DHT22;50167;47.958;21.780;2023-06-10T09:17:06;25.95;61.50
63976;DHT22;50167;47.958;21.780;2023-06-10T09:19:32;25.98;61.26
63976;DHT22;50167;47.958;21.780;2023-06-10T09:21:59;26.03;61.59
63976;DHT22;50167;47.958;21.780;2023-06-10T09:24:25;26.00;61.16
63976;DHT22;50167;47.958;21.780;2023-06-10T09:27:04;25.95;61.54
63976;DHT22;50167;47.958;21.780;2023-06-10T09:29:54;25.76;61.01
63976;DHT22;50167;47.958;21.780;2023-06-10T09:32:21;25.76;62.22
63976;DHT22;50167;47.958;21.780;2023-06-10T09:34:48;25.97;62.24
63976;DHT22;50167;47.958;21.780;2023-06-10T09:37:24;26.04;62.96
63976;DHT22;50167;47.958;21.780;2023-06-10T09:40:07;27.14;60.06
63976;DHT22;50167;47.958;21.780;2023-06-10T09:42:36;28.17;55.92
63976;DHT22;50167;47.958;21.780;2023-06-10T09:45:05;27.97;54.72
63976;DHT22;50167;47.958;21.780;2023-06-10T09:47:33;27.61;55.90
63976;DHT22;50167;47.958;21.780;2023-06-10T09:50:00;27.35;56.79
63976;DHT22;50167;47.958;21.780;2023-06-10T09:52:28;27.30;56.76
63976;DHT22;50167;47.958;21.780;2023-06-10T09:55:00;27.15;56.66
63976;DHT22;50167;47.958;21.780;2023-06-10T09:57:32;26.93;55.61
63976;DHT22;50167;47.958;21.780;2023-06-10T10:00:09;26.73;57.91
63976;DHT22;50167;47.958;21.780;2023-06-10T10:02:50;26.85;57.39
63976;DHT22;50167;47.958;21.780;2023-06-10T10:05:21;26.83;57.35
63976;DHT22;50167;47.958;21.780;2023-06-10T10:07:48;26.83;58.39
63976;DHT22;50167;47.958;21.780;2023-06-10T10:10:16;27.00;56.28
63976;DHT22;50167;47.958;21.780;2023-06-10T10:12:46;27.01;57.30
63976;DHT22;50167;47.958;21.780;2023-06-10T10:15:13;27.01;57.98
63976;DHT22;50167;47.958;21.780;2023-06-10T10:24:09;27.51;56.40
63976;DHT22;50167;47.958;21.780;2023-06-10T10:26:36;27.72;55.73
63976;DHT22;50167;47.958;21.780;2023-06-10T10:31:56;27.71;55.82
63976;DHT22;50167;47.958;21.780;2023-06-10T10:34:47;27.76;54.34
63976;DHT22;50167;47.958;21.780;2023-06-10T10:37:09;27.85;55.12
63976;DHT22;50167;47.958;21.780;2023-06-10T10:39:37;27.96;54.88
63976;DHT22;50167;47.958;21.780;2023-06-10T10:42:05;28.09;53.92
63976;DHT22;50167;47.958;21.780;2023-06-10T10:44:34;28.12;54.09
63976;DHT22;50167;47.958;21.780;2023-06-10T10:47:02;28.10;54.92
63976;DHT22;50167;47.958;21.780;2023-06-10T10:49:32;28.16;55.13
63976;DHT22;50167;47.958;21.780;2023-06-10T10:52:03;28.26;54.36
63976;DHT22;50167;47.958;21.780;2023-06-10T10:54:35;28.41;54.15
63976;DHT22;50167;47.958;21.780;2023-06-10T10:57:19;28.54;53.32
63976;DHT22;50167;47.958;21.780;2023-06-10T10:59:57;28.65;53.23
63976;DHT22;50167;47.958;21.780;2023-06-10T11:02:43;28.71;54.08
63976;DHT22;50167;47.958;21.780;2023-06-10T11:05:13;28.78;51.74
63976;DHT22;50167;47.958;21.780;2023-06-10T11:07:40;28.56;51.26
63976;DHT22;50167;47.958;21.780;2023-06-10T11:10:12;28.38;51.95
63976;DHT22;50167;47.958;21.780;2023-06-10T11:12:51;28.38;50.48
63976;DHT22;50167;47.958;21.780;2023-06-10T11:15:23;28.33;52.06
63976;DHT22;50167;47.958;21.780;2023-06-10T11:18:27;28.12;51.74
63976;DHT22;50167;47.958;21.780;2023-06-10T11:21:04;27.75;53.45
63976;DHT22;50167;47.958;21.780;2023-06-10T11:26:22;27.54;52.75
63976;DHT22;50167;47.958;21.780;2023-06-10T11:31:25;27.93;52.98
63976;DHT22;50167;47.958;21.780;2023-06-10T11:34:04;28.09;53.34
63976;DHT22;50167;47.958;21.780;2023-06-10T11:36:33;28.23;53.01
63976;DHT22;50167;47.958;21.780;2023-06-10T11:39:04;28.19;52.33
63976;DHT22;50167;47.958;21.780;2023-06-10T11:41:36;28.03;53.48
63976;DHT22;50167;47.958;21.780;2023-06-10T11:44:07;28.04;52.75
63976;DHT22;50167;47.958;21.780;2023-06-10T11:46:33;28.22;53.88
63976;DHT22;50167;47.958;21.780;2023-06-10T11:49:00;28.45;53.08
63976;DHT22;50167;47.958;21.780;2023-06-10T11:51:33;28.55;52.46
63976;DHT22;50167;47.958;21.780;2023-06-10T11:53:59;28.54;51.36
63976;DHT22;50167;47.958;21.780;2023-06-10T11:56:28;28.61;52.24
63976;DHT22;50167;47.958;21.780;2023-06-10T11:59:05;28.79;50.41
63976;DHT22;50167;47.958;21.780;2023-06-10T12:01:37;28.82;50.75
63976;DHT22;50167;47.958;21.780;2023-06-10T12:04:11;28.77;51.46
63976;DHT22;50167;47.958;21.780;2023-06-10T12:09:25;29.09;52.81
63976;DHT22;50167;47.958;21.780;2023-06-10T12:12:04;29.40;51.78
63976;DHT22;50167;47.958;21.780;2023-06-10T12:15:03;29.58;51.24
63976;DHT22;50167;47.958;21.780;2023-06-10T12:17:36;29.63;51.42
63976;DHT22;50167;47.958;21.780;2023-06-10T12:20:07;29.75;51.97
63976;DHT22;50167;47.958;21.780;2023-06-10T12:22:42;29.91;51.30
63976;DHT22;50167;47.958;21.780;2023-06-10T12:25:11;30.06;50.64
63976;DHT22;50167;47.958;21.780;2023-06-10T12:27:50;30.25;50.23
63976;DHT22;50167;47.958;21.780;2023-06-10T12:30:09;30.36;48.80
63976;DHT22;50167;47.958;21.780;2023-06-10T12:32:45;30.43;47.69
63976;DHT22;50167;47.958;21.780;2023-06-10T12:35:26;30.42;47.37
63976;DHT22;50167;47.958;21.780;2023-06-10T12:38:03;30.27;46.42
63976;DHT22;50167;47.958;21.780;2023-06-10T12:40:39;30.18;47.29
63976;DHT22;50167;47.958;21.780;2023-06-10T12:43:09;30.22;46.79
63976;DHT22;50167;47.958;21.780;2023-06-10T12:45:38;30.27;46.65
63976;DHT22;50167;47.958;21.780;2023-06-10T12:50:58;30.74;44.09
63976;DHT22;50167;47.958;21.780;2023-06-10T12:53:31;31.22;44.56
63976;DHT22;50167;47.958;21.780;2023-06-10T12:55:59;31.75;42.22
63976;DHT22;50167;47.958;21.780;2023-06-10T12:58:27;32.13;42.28
63976;DHT22;50167;47.958;21.780;2023-06-10T13:00:53;32.58;42.29
63976;DHT22;50167;47.958;21.780;2023-06-10T13:03:20;33.12;40.21
63976;DHT22;50167;47.958;21.780;2023-06-10T13:05:46;33.47;40.50
63976;DHT22;50167;47.958;21.780;2023-06-10T13:08:14;33.20;37.92
63976;DHT22;50167;47.958;21.780;2023-06-10T13:10:41;32.76;39.91
63976;DHT22;50167;47.958;21.780;2023-06-10T13:13:08;32.89;40.49
63976;DHT22;50167;47.958;21.780;2023-06-10T13:15:35;33.24;39.36
63976;DHT22;50167;47.958;21.780;2023-06-10T13:18:03;33.54;39.77
63976;DHT22;50167;47.958;21.780;2023-06-10T13:20:30;33.81;38.40
63976;DHT22;50167;47.958;21.780;2023-06-10T13:22:57;34.29;39.31
63976;DHT22;50167;47.958;21.780;2023-06-10T13:25:23;35.02;37.92
63976;DHT22;50167;47.958;21.780;2023-06-10T13:27:50;35.62;35.57
63976;DHT22;50167;47.958;21.780;2023-06-10T13:30:16;35.93;35.33
63976;DHT22;50167;47.958;21.780;2023-06-10T13:32:43;35.60;35.73
63976;DHT22;50167;47.958;21.780;2023-06-10T13:35:14;34.97;35.85
63976;DHT22;50167;47.958;21.780;2023-06-10T13:37:39;34.93;36.59
63976;DHT22;50167;47.958;21.780;2023-06-10T13:40:06;35.36;36.25
63976;DHT22;50167;47.958;21.780;2023-06-10T13:42:33;35.83;35.59
63976;DHT22;50167;47.958;21.780;2023-06-10T13:45:03;36.21;34.44
63976;DHT22;50167;47.958;21.780;2023-06-10T13:47:30;36.44;33.41
63976;DHT22;50167;47.958;21.780;2023-06-10T13:49:58;36.79;33.38
63976;DHT22;50167;47.958;21.780;2023-06-10T13:52:24;37.20;32.75
63976;DHT22;50167;47.958;21.780;2023-06-10T13:54:50;37.65;31.51
63976;DHT22;50167;47.958;21.780;2023-06-10T13:57:17;38.15;31.33
63976;DHT22;50167;47.958;21.780;2023-06-10T13:59:43;38.66;31.26
63976;DHT22;50167;47.958;21.780;2023-06-10T14:02:09;38.87;31.12
